createdAt,value
2022-12-18T00:02:25.568Z,99999.59
2022-12-18T00:04:52.144Z,99999.84
2022-12-18T00:07:18.609Z,100001.66
2022-12-18T00:09:45.155Z,99997.69
2022-12-18T00:14:45.502Z,100001.38
2022-12-18T00:17:12.254Z,100005.78
2022-12-18T00:19:38.726Z,99994.09
2022-12-18T00:22:05.982Z,99993.28
2022-12-18T00:24:34.767Z,99991.47
2022-12-18T00:27:01.257Z,99998.31
2022-12-18T00:29:27.773Z,99996.44
2022-12-18T00:31:54.424Z,100006.69
2022-12-18T00:34:20.916Z,100001.84
2022-12-18T00:36:49.013Z,100001.72
2022-12-18T00:39:15.516Z,100000.84
2022-12-18T00:42:00.692Z,100003.19
2022-12-18T00:44:27.284Z,99996.53
2022-12-18T00:46:56.602Z,99985.09
2022-12-18T00:49:23.070Z,99995.16
2022-12-18T00:51:49.543Z,99991.78
2022-12-18T00:54:16.802Z,99979.19
2022-12-18T00:56:49.413Z,99977.50
2022-12-18T00:59:18.586Z,99977.66
2022-12-18T01:01:45.836Z,99978.47
2022-12-18T01:04:12.620Z,99988.56
2022-12-18T01:06:39.127Z,99992.84
2022-12-18T01:09:06.782Z,100002.91
2022-12-18T01:11:33.313Z,100008.13
2022-12-18T01:14:02.908Z,100009.94
2022-12-18T01:16:29.511Z,100024.41
2022-12-18T01:18:56.323Z,100022.34
2022-12-18T01:21:24.531Z,100028.16
2022-12-18T01:23:58.482Z,100032.16
2022-12-18T01:26:26.079Z,100034.19
2022-12-18T01:28:52.992Z,100029.09
2022-12-18T01:31:22.065Z,100034.19
2022-12-18T01:33:52.720Z,100037.69
2022-12-18T01:36:22.694Z,100036.63
2022-12-18T01:38:50.201Z,100042.19
2022-12-18T01:41:20.124Z,100044.78
2022-12-18T01:43:58.454Z,100045.72
2022-12-18T01:46:28.655Z,100045.63
2022-12-18T01:49:00.586Z,100043.25
2022-12-18T01:51:30.638Z,100042.38
2022-12-18T01:53:58.437Z,100044.16
2022-12-18T01:56:25.124Z,100046.41
2022-12-18T01:59:12.738Z,100041.44
2022-12-18T02:01:39.649Z,100053.41
2022-12-18T02:04:26.652Z,100046.78
2022-12-18T02:07:14.269Z,100042.41
2022-12-18T02:10:04.360Z,100050.09
2022-12-18T02:12:57.438Z,100056.84
2022-12-18T02:15:40.162Z,100052.59
2022-12-18T02:18:14.843Z,100052.25
2022-12-18T02:21:01.979Z,100048.81
2022-12-18T02:24:10.654Z,100046.16
2022-12-18T02:26:43.567Z,100033.56
2022-12-18T02:29:15.198Z,100036.34
2022-12-18T02:31:51.321Z,100044.06
2022-12-18T02:34:20.559Z,100047.38
2022-12-18T02:36:49.490Z,100057.16
2022-12-18T02:39:16.892Z,100054.66
2022-12-18T02:41:43.624Z,100066.53
2022-12-18T02:44:14.408Z,100069.88
2022-12-18T02:46:45.250Z,100068.28
2022-12-18T02:49:31.371Z,100076.72
2022-12-18T02:52:19.310Z,100074.06
2022-12-18T02:55:13.216Z,100069.81
2022-12-18T02:58:00.232Z,100084.16
2022-12-18T03:00:38.068Z,100075.72
2022-12-18T03:03:12.826Z,100083.78
2022-12-18T03:05:51.204Z,100071.81
2022-12-18T03:08:28.628Z,100068.25
2022-12-18T03:11:02.319Z,100058.97
2022-12-18T03:13:40.966Z,100050.63
2022-12-18T03:16:12.451Z,100056.53
2022-12-18T03:18:43.547Z,100062.50
2022-12-18T03:21:12.661Z,100057.03
2022-12-18T03:23:48.231Z,100057.03
2022-12-18T03:26:19.050Z,100054.69
2022-12-18T03:28:57.377Z,100060.69
2022-12-18T03:31:27.281Z,100073.19
2022-12-18T03:33:58.522Z,100075.75
2022-12-18T03:36:25.773Z,100075.81
2022-12-18T03:38:52.633Z,100070.13
2022-12-18T03:41:35.476Z,100075.81
2022-12-18T03:44:17.334Z,100076.72
2022-12-18T03:47:02.755Z,100080.50
2022-12-18T03:49:41.094Z,100083.63
2022-12-18T03:52:14.030Z,100087.06
2022-12-18T03:54:43.865Z,100093.44
2022-12-18T03:57:23.924Z,100083.59
2022-12-18T03:59:55.501Z,100095.91
2022-12-18T04:02:24.590Z,100098.22
2022-12-18T04:04:57.083Z,100090.50
2022-12-18T04:07:25.180Z,100094.47
2022-12-18T04:09:54.724Z,100089.31
2022-12-18T04:12:21.388Z,100089.81
2022-12-18T04:14:48.023Z,100086.31
2022-12-18T04:17:14.660Z,100090.47
2022-12-18T04:19:41.297Z,100098.34
2022-12-18T04:22:10.193Z,100097.84
2022-12-18T04:24:37.275Z,100099.25
2022-12-18T04:27:05.000Z,100086.25
2022-12-18T04:29:35.931Z,100095.19
2022-12-18T04:32:02.711Z,100097.47
2022-12-18T04:34:29.542Z,100108.94
2022-12-18T04:36:56.101Z,100104.28
2022-12-18T04:39:22.992Z,100095.81
2022-12-18T04:41:49.450Z,100097.97
2022-12-18T04:44:16.010Z,100105.66
2022-12-18T04:46:43.315Z,100097.09
2022-12-18T04:49:11.392Z,100094.31
2022-12-18T04:51:38.487Z,100088.34
2022-12-18T04:54:05.106Z,100082.59
2022-12-18T04:56:32.259Z,100087.50
2022-12-18T04:58:58.860Z,100081.44
2022-12-18T05:01:31.006Z,100091.44
2022-12-18T05:04:01.130Z,100098.31
2022-12-18T05:06:27.839Z,100096.66
2022-12-18T05:08:54.551Z,100089.16
2022-12-18T05:11:21.039Z,100086.59
2022-12-18T05:13:47.602Z,100082.22
2022-12-18T05:16:15.501Z,100092.75
2022-12-18T05:18:42.537Z,100089.28
2022-12-18T05:21:09.329Z,100102.31
2022-12-18T05:23:37.219Z,100112.19
2022-12-18T05:26:06.907Z,100104.31
2022-12-18T05:28:35.518Z,100102.44
2022-12-18T05:31:04.554Z,100098.78
2022-12-18T05:33:34.806Z,100107.16
2022-12-18T05:36:08.853Z,100104.53
2022-12-18T05:38:38.034Z,100103.59
2022-12-18T05:41:05.431Z,100096.78
2022-12-18T05:43:34.331Z,100103.59
2022-12-18T05:46:05.798Z,100109.47
2022-12-18T05:48:32.602Z,100108.91
2022-12-18T05:51:06.205Z,100114.88
2022-12-18T05:53:35.518Z,100108.06
2022-12-18T05:56:04.505Z,100114.88
2022-12-18T05:58:32.338Z,100112.00
2022-12-18T06:01:06.662Z,100103.31
2022-12-18T06:03:34.169Z,100109.06
2022-12-18T06:06:01.007Z,100108.13
2022-12-18T06:08:27.818Z,100112.13
2022-12-18T06:10:57.576Z,100116.78
2022-12-18T06:13:24.415Z,100128.50
2022-12-18T06:15:51.067Z,100134.16
2022-12-18T06:18:17.634Z,100132.06
2022-12-18T06:20:55.772Z,100130.94
2022-12-18T06:23:22.445Z,100125.72
2022-12-18T06:25:49.128Z,100121.94
2022-12-18T06:28:16.000Z,100113.63
2022-12-18T06:30:47.301Z,100116.69
2022-12-18T06:33:13.965Z,100116.59
2022-12-18T06:35:40.714Z,100118.88
2022-12-18T06:38:07.316Z,100119.56
2022-12-18T06:40:34.669Z,100130.47
2022-12-18T06:43:01.297Z,100139.66
2022-12-18T06:45:28.075Z,100132.72
2022-12-18T06:47:55.074Z,100134.28
2022-12-18T06:50:21.627Z,100137.13
2022-12-18T06:52:48.289Z,100135.38
2022-12-18T06:55:15.122Z,100145.38
2022-12-18T06:57:41.781Z,100143.00
2022-12-18T07:00:08.903Z,100146.19
2022-12-18T07:02:35.792Z,100147.56
2022-12-18T07:05:07.499Z,100153.28
2022-12-18T07:07:37.039Z,100141.13
2022-12-18T07:10:03.980Z,100143.63
2022-12-18T07:12:30.691Z,100134.94
2022-12-18T07:14:57.200Z,100132.28
2022-12-18T07:17:23.779Z,100131.28
2022-12-18T07:19:50.448Z,100126.28
2022-12-18T07:22:17.446Z,100126.22
2022-12-18T07:24:44.159Z,100117.47
2022-12-18T07:27:10.869Z,100124.75
2022-12-18T07:29:37.549Z,100126.22
2022-12-18T07:32:10.429Z,100127.66
2022-12-18T07:34:37.392Z,100140.06
2022-12-18T07:37:04.134Z,100136.53
2022-12-18T07:39:30.703Z,100143.31
2022-12-18T07:42:15.813Z,100143.59
2022-12-18T07:44:42.473Z,100149.78
2022-12-18T07:47:11.997Z,100156.25
2022-12-18T07:49:41.145Z,100159.34
2022-12-18T07:52:07.856Z,100165.75
2022-12-18T07:54:34.756Z,100165.34
2022-12-18T07:57:01.456Z,100163.47
2022-12-18T07:59:28.183Z,100168.34
2022-12-18T08:01:54.994Z,100169.78
2022-12-18T08:04:21.817Z,100171.38
2022-12-18T08:06:48.581Z,100170.22
2022-12-18T08:09:18.002Z,100168.25
2022-12-18T08:11:44.936Z,100169.63
2022-12-18T08:14:11.627Z,100163.53
2022-12-18T08:16:38.531Z,100162.34
2022-12-18T08:19:05.351Z,100168.03
2022-12-18T08:21:32.667Z,100171.03
2022-12-18T08:24:01.093Z,100171.78
2022-12-18T08:26:30.955Z,100179.94
2022-12-18T08:28:59.462Z,100172.94
2022-12-18T08:31:28.191Z,100166.72
2022-12-18T08:33:55.327Z,100165.47
2022-12-18T08:36:23.093Z,100177.06
2022-12-18T08:38:51.237Z,100183.66
2022-12-18T08:41:19.281Z,100173.34
2022-12-18T08:44:04.967Z,100181.72
2022-12-18T08:46:41.230Z,100183.75
2022-12-18T08:49:12.372Z,100178.34
2022-12-18T08:51:41.147Z,100178.81
2022-12-18T08:54:08.035Z,100165.78
2022-12-18T08:56:35.098Z,100162.94
2022-12-18T08:59:02.093Z,100163.47
2022-12-18T09:01:29.340Z,100168.53
2022-12-18T09:03:56.298Z,100165.78
2022-12-18T09:06:23.893Z,100170.06
2022-12-18T09:08:50.832Z,100160.59
2022-12-18T09:11:26.920Z,100167.16
2022-12-18T09:13:55.129Z,100163.69
2022-12-18T09:16:27.386Z,100157.63
2022-12-18T09:19:02.407Z,100159.13
2022-12-18T09:21:30.755Z,100164.13
2022-12-18T09:23:57.987Z,100162.97
2022-12-18T09:26:26.401Z,100166.44
2022-12-18T09:28:53.004Z,100160.97
2022-12-18T09:31:22.605Z,100148.06
2022-12-18T09:33:49.365Z,100155.06
2022-12-18T09:36:18.598Z,100143.56
2022-12-18T09:38:45.412Z,100144.91
2022-12-18T09:41:40.102Z,100135.78
2022-12-18T09:44:12.825Z,100137.22
2022-12-18T09:46:45.079Z,100126.47
2022-12-18T09:49:20.143Z,100126.22
2022-12-18T09:51:50.661Z,100135.59
2022-12-18T09:54:26.910Z,100134.16
2022-12-18T09:56:54.651Z,100129.91
2022-12-18T09:59:34.102Z,100131.38
2022-12-18T10:02:03.951Z,100143.56
2022-12-18T10:04:33.081Z,100127.69
2022-12-18T10:07:24.504Z,100129.53
2022-12-18T10:10:14.148Z,100126.06
2022-12-18T10:13:04.720Z,100118.97
2022-12-18T10:15:48.387Z,100116.50
2022-12-18T10:18:58.664Z,100110.41
2022-12-18T10:21:49.078Z,100105.25
2022-12-18T10:24:49.318Z,100095.41
2022-12-18T10:27:23.251Z,100096.22
2022-12-18T10:29:50.933Z,100097.59
2022-12-18T10:32:24.080Z,100096.78
2022-12-18T10:35:01.102Z,100092.75
2022-12-18T10:37:51.219Z,100095.00
2022-12-18T10:40:31.866Z,100105.13
2022-12-18T10:43:15.980Z,100102.38
2022-12-18T10:46:04.395Z,100118.47
2022-12-18T10:48:40.528Z,100113.72
2022-12-18T10:51:40.607Z,100110.44
2022-12-18T10:54:21.240Z,100103.63
2022-12-18T10:57:23.060Z,100109.63
2022-12-18T11:00:00.682Z,100111.81
2022-12-18T11:02:39.212Z,100113.72
2022-12-18T11:05:30.080Z,100113.13
2022-12-18T11:08:00.857Z,100116.88
2022-12-18T11:10:45.951Z,100106.69
2022-12-18T11:13:36.529Z,100097.63
2022-12-18T11:16:26.221Z,100093.19
2022-12-18T11:19:08.391Z,100086.44
2022-12-18T11:21:41.627Z,100091.63
2022-12-18T11:24:21.772Z,100087.09
2022-12-18T11:26:59.931Z,100084.63
2022-12-18T11:29:43.245Z,100082.94
2022-12-18T11:32:19.286Z,100076.09
2022-12-18T11:34:52.524Z,100086.97
2022-12-18T11:37:23.109Z,100088.03
2022-12-18T11:40:01.678Z,100079.94
2022-12-18T11:42:47.152Z,100079.50
2022-12-18T11:45:14.072Z,100063.91
2022-12-18T11:47:50.090Z,100062.66
2022-12-18T11:50:34.840Z,100059.47
2022-12-18T11:53:06.435Z,100059.09
2022-12-18T11:55:57.844Z,100044.34
2022-12-18T11:58:57.313Z,100048.50
2022-12-18T12:01:44.498Z,100054.28
2022-12-18T12:04:33.788Z,100059.19
2022-12-18T12:07:17.865Z,100051.06
2022-12-18T12:09:53.942Z,100053.28
2022-12-18T12:12:56.769Z,100048.25
2022-12-18T12:15:47.405Z,100041.94
2022-12-18T12:19:04.302Z,100041.88
2022-12-18T12:22:03.504Z,100030.28
2022-12-18T12:24:55.677Z,100034.00
2022-12-18T12:27:48.088Z,100030.69
2022-12-18T12:30:54.877Z,100023.88
2022-12-18T12:33:51.686Z,100030.22
2022-12-18T12:36:50.595Z,100029.84
2022-12-18T12:40:15.287Z,100025.47
2022-12-18T12:47:15.482Z,100020.16
2022-12-18T12:49:52.127Z,100024.19
2022-12-18T12:52:50.026Z,100028.28
2022-12-18T12:55:35.589Z,100026.97
2022-12-18T12:58:29.337Z,100021.25
2022-12-18T13:01:29.868Z,100014.38
2022-12-18T13:04:28.414Z,100011.84
2022-12-18T13:07:11.698Z,100023.50
2022-12-18T13:10:19.212Z,100017.91
2022-12-18T13:13:09.171Z,100016.06
2022-12-18T13:16:09.378Z,100002.59
2022-12-18T13:18:36.475Z,99992.75
2022-12-18T13:21:18.563Z,99992.94
2022-12-18T13:23:46.138Z,99995.41
2022-12-18T13:26:17.102Z,99993.59
2022-12-18T13:28:49.771Z,99994.59
2022-12-18T13:31:42.355Z,99997.66
2022-12-18T13:34:33.509Z,100000.75
2022-12-18T13:37:39.698Z,100009.41
2022-12-18T13:40:48.892Z,100010.88
2022-12-18T13:43:28.456Z,100004.16
2022-12-18T13:46:32.939Z,100004.75
2022-12-18T13:49:15.033Z,99990.31
2022-12-18T13:51:45.077Z,99988.41
2022-12-18T13:54:25.318Z,99983.41
2022-12-18T13:56:52.201Z,99979.09
2022-12-18T13:59:22.984Z,99977.47
2022-12-18T14:02:02.909Z,99966.13
2022-12-18T14:04:33.894Z,99973.16
2022-12-18T14:07:25.112Z,99970.78
2022-12-18T14:10:06.432Z,99976.91
2022-12-18T14:12:57.893Z,99963.97
2022-12-18T14:15:27.991Z,99963.97
2022-12-18T14:18:23.024Z,99986.09
2022-12-18T14:20:53.338Z,99985.59
2022-12-18T14:23:43.707Z,99981.69
2022-12-18T14:26:24.761Z,99990.84
2022-12-18T14:28:52.009Z,99999.84
2022-12-18T14:31:26.502Z,99995.47
2022-12-18T14:33:56.906Z,100004.78
2022-12-18T14:36:27.358Z,100009.53
2022-12-18T14:38:58.524Z,100008.19
2022-12-18T14:41:26.557Z,100008.38
2022-12-18T14:43:55.489Z,99992.63
2022-12-18T14:46:28.418Z,99997.72
2022-12-18T14:48:57.511Z,100000.56
2022-12-18T14:51:29.535Z,99993.09
2022-12-18T14:54:08.958Z,99992.56
2022-12-18T14:56:37.873Z,99991.94
2022-12-18T14:59:23.825Z,99996.31
2022-12-18T15:02:14.709Z,99993.50
2022-12-18T15:04:44.720Z,99998.97
2022-12-18T15:07:23.216Z,100000.19
2022-12-18T15:10:13.772Z,99997.91
2022-12-18T15:13:00.667Z,100004.81
2022-12-18T15:15:43.448Z,100010.91
2022-12-18T15:18:13.050Z,100009.47
2022-12-18T15:20:49.246Z,100007.28
2022-12-18T15:23:25.551Z,100005.44
2022-12-18T15:26:07.345Z,100008.28
2022-12-18T15:28:44.188Z,99997.63
2022-12-18T15:31:12.060Z,100002.09
2022-12-18T15:33:45.163Z,100006.44
2022-12-18T15:36:17.592Z,100004.81
2022-12-18T15:38:49.595Z,100010.25
2022-12-18T15:41:22.954Z,100006.34
2022-12-18T15:43:53.317Z,100003.28
2022-12-18T15:46:22.416Z,100000.78
2022-12-18T15:49:01.728Z,100003.16
2022-12-18T15:51:39.406Z,100009.50
2022-12-18T15:54:12.268Z,100015.63
2022-12-18T15:56:57.558Z,100007.50
2022-12-18T15:59:25.493Z,100019.06
2022-12-18T16:01:55.682Z,100009.88
2022-12-18T16:04:23.366Z,100004.97
2022-12-18T16:07:14.943Z,100006.06
2022-12-18T16:09:39.906Z,100001.69
2022-12-18T16:12:21.870Z,100007.22
2022-12-18T16:14:51.222Z,100010.25
2022-12-18T16:17:18.453Z,100011.47
2022-12-18T16:19:45.677Z,100013.22
2022-12-18T16:22:30.890Z,100009.13
2022-12-18T16:25:00.693Z,100005.75
2022-12-18T16:27:27.302Z,99997.47
2022-12-18T16:29:54.070Z,100005.63
2022-12-18T16:32:23.342Z,99997.91
2022-12-18T16:34:50.452Z,99993.63
2022-12-18T16:37:17.458Z,99981.88
2022-12-18T16:39:44.272Z,99983.88
2022-12-18T16:42:17.584Z,99986.25
2022-12-18T16:44:45.659Z,99999.31
2022-12-18T16:47:14.939Z,99999.44
2022-12-18T16:49:42.483Z,99991.63
2022-12-18T16:52:09.636Z,99994.97
2022-12-18T16:54:36.948Z,100000.13
2022-12-18T16:57:05.479Z,100001.69
2022-12-18T16:59:35.575Z,100004.41
2022-12-18T17:02:23.765Z,99987.94
2022-12-18T17:04:57.335Z,99984.66
2022-12-18T17:07:25.696Z,99987.88
2022-12-18T17:09:54.177Z,99980.75
2022-12-18T17:12:21.774Z,99973.69
2022-12-18T17:14:51.473Z,99972.41
2022-12-18T17:17:21.219Z,99975.66
2022-12-18T17:19:50.069Z,99978.13
2022-12-18T17:22:17.015Z,99983.41
2022-12-18T17:24:43.826Z,99983.22
2022-12-18T17:27:10.816Z,99980.44
2022-12-18T17:29:41.153Z,99981.13
2022-12-18T17:32:12.501Z,99977.31
2022-12-18T17:34:39.402Z,99981.44
2022-12-18T17:37:10.331Z,99977.41
2022-12-18T17:39:40.186Z,99981.13
2022-12-18T17:42:08.385Z,99979.66
2022-12-18T17:44:40.208Z,99975.88
2022-12-18T17:47:07.877Z,99980.50
2022-12-18T17:49:34.776Z,99971.94
2022-12-18T17:52:01.534Z,99979.59
2022-12-18T17:54:28.631Z,99979.94
2022-12-18T17:56:55.518Z,99971.72
2022-12-18T17:59:22.761Z,99972.13
2022-12-18T18:01:49.762Z,99979.88
2022-12-18T18:04:19.353Z,99979.28
2022-12-18T18:06:46.110Z,99965.09
2022-12-18T18:09:16.097Z,99963.03
2022-12-18T18:12:05.486Z,99970.69
2022-12-18T18:14:33.145Z,99964.66
2022-12-18T18:17:04.273Z,99968.13
2022-12-18T18:19:31.283Z,99963.78
2022-12-18T18:21:58.298Z,99957.59
2022-12-18T18:24:25.949Z,99960.31
2022-12-18T18:26:52.739Z,99959.31
2022-12-18T18:29:23.064Z,99956.22
2022-12-18T18:31:50.646Z,99962.88
2022-12-18T18:34:23.136Z,99963.78
2022-12-18T18:36:50.272Z,99962.13
2022-12-18T18:39:18.082Z,99956.59
2022-12-18T18:41:48.344Z,99958.91
2022-12-18T18:44:16.423Z,99946.00
2022-12-18T18:46:46.550Z,99942.78
2022-12-18T18:49:17.075Z,99936.00
2022-12-18T18:51:49.173Z,99945.19
2022-12-18T18:54:15.890Z,99945.00
2022-12-18T18:57:18.884Z,99935.72
2022-12-18T18:59:31.562Z,99938.25
2022-12-18T19:02:00.146Z,99930.72
2022-12-18T19:04:32.238Z,99932.47
2022-12-18T19:06:59.296Z,99936.38
2022-12-18T19:09:26.410Z,99939.81
2022-12-18T19:12:12.110Z,99924.47
2022-12-18T19:14:39.140Z,99927.19
2022-12-18T19:17:07.555Z,99920.44
2022-12-18T19:19:39.749Z,99913.81
2022-12-18T19:22:07.113Z,99913.16
2022-12-18T19:24:33.989Z,99922.28
2022-12-18T19:27:00.770Z,99923.84
2022-12-18T19:29:27.810Z,99921.28
2022-12-18T19:31:54.653Z,99919.56
2022-12-18T19:34:21.390Z,99916.91
2022-12-18T19:36:48.068Z,99911.00
2022-12-18T19:39:17.872Z,99902.44
2022-12-18T19:41:46.235Z,99916.19
2022-12-18T19:44:15.589Z,99919.72
2022-12-18T19:46:44.757Z,99922.00
2022-12-18T19:49:11.947Z,99911.63
2022-12-18T19:51:44.098Z,99922.81
2022-12-18T19:54:16.189Z,99920.81
2022-12-18T19:56:44.262Z,99916.56
2022-12-18T19:59:10.943Z,99909.09
2022-12-18T20:01:43.220Z,99904.75
2022-12-18T20:04:10.421Z,99915.66
2022-12-18T20:06:47.947Z,99908.28
2022-12-18T20:09:15.010Z,99908.94
2022-12-18T20:11:42.542Z,99916.28
2022-12-18T20:14:13.023Z,99909.81
2022-12-18T20:16:40.481Z,99906.41
2022-12-18T20:19:07.929Z,99916.41
2022-12-18T20:21:35.572Z,99910.09
2022-12-18T20:24:02.470Z,99901.31
2022-12-18T20:26:29.423Z,99904.84
2022-12-18T20:28:56.664Z,99897.66
2022-12-18T20:31:24.629Z,99901.31
2022-12-18T20:33:52.137Z,99902.00
2022-12-18T20:36:24.632Z,99910.22
2022-12-18T20:38:54.731Z,99902.56
2022-12-18T20:41:24.911Z,99908.22
2022-12-18T20:43:54.412Z,99914.84
2022-12-18T20:46:24.568Z,99907.03
2022-12-18T20:48:51.851Z,99912.69
2022-12-18T20:51:21.685Z,99911.06
2022-12-18T20:53:48.741Z,99902.06
2022-12-18T20:56:21.549Z,99903.41
2022-12-18T20:58:49.679Z,99890.50
2022-12-18T21:01:21.348Z,99888.41
2022-12-18T21:03:51.415Z,99868.22
2022-12-18T21:06:20.710Z,99876.97
2022-12-18T21:08:48.362Z,99870.22
2022-12-18T21:11:35.543Z,99875.56
2022-12-18T21:14:05.276Z,99871.69
2022-12-18T21:16:32.399Z,99876.22
2022-12-18T21:18:59.594Z,99872.56
2022-12-18T21:21:27.198Z,99874.94
2022-12-18T21:23:56.939Z,99867.22
2022-12-18T21:26:26.374Z,99879.31
2022-12-18T21:28:58.134Z,99880.88
2022-12-18T21:31:34.574Z,99873.38
2022-12-18T21:34:07.576Z,99873.13
2022-12-18T21:36:35.187Z,99868.47
2022-12-18T21:39:04.612Z,99875.31
2022-12-18T21:41:52.328Z,99864.03
2022-12-18T21:44:22.339Z,99859.66
2022-12-18T21:46:58.373Z,99856.28
2022-12-18T21:49:33.687Z,99860.13
2022-12-18T21:52:01.159Z,99855.03
2022-12-18T21:54:29.022Z,99845.47
2022-12-18T21:57:07.068Z,99842.72
2022-12-18T21:59:41.411Z,99850.56
2022-12-18T22:02:13.000Z,99852.22
2022-12-18T22:04:42.560Z,99856.66
2022-12-18T22:07:09.755Z,99851.09
2022-12-18T22:09:38.275Z,99849.66
2022-12-18T22:12:05.995Z,99843.53
2022-12-18T22:14:32.789Z,99846.63
2022-12-18T22:16:59.553Z,99852.56
2022-12-18T22:19:26.949Z,99848.81
2022-12-18T22:21:54.450Z,99856.47
2022-12-18T22:24:26.541Z,99850.28
2022-12-18T22:27:01.750Z,99837.34
2022-12-18T22:29:48.047Z,99833.81
2022-12-18T22:32:23.776Z,99868.66
2022-12-18T22:35:07.279Z,99864.03
2022-12-18T22:37:37.358Z,99861.66
2022-12-18T22:40:06.016Z,99861.28
2022-12-18T22:42:34.370Z,99861.09
2022-12-18T22:45:01.090Z,99840.47
2022-12-18T22:47:30.821Z,99853.28
2022-12-18T22:49:58.313Z,99849.38
2022-12-18T22:52:25.609Z,99848.91
2022-12-18T22:54:54.081Z,99853.63
2022-12-18T22:57:22.430Z,99862.75
2022-12-18T22:59:50.459Z,99859.25
2022-12-18T23:02:19.046Z,99844.78
2022-12-18T23:04:47.726Z,99839.88
2022-12-18T23:07:15.834Z,99856.28
2022-12-18T23:09:42.957Z,99852.63
2022-12-18T23:12:16.338Z,99854.63
2022-12-18T23:14:43.420Z,99852.53
2022-12-18T23:17:10.223Z,99835.91
2022-12-18T23:19:44.024Z,99845.44
2022-12-18T23:22:14.020Z,99848.72
2022-12-18T23:24:40.881Z,99843.63
2022-12-18T23:27:11.567Z,99854.34
2022-12-18T23:29:41.928Z,99845.09
2022-12-18T23:32:10.799Z,99848.72
2022-12-18T23:34:39.489Z,99861.28
2022-12-18T23:37:06.333Z,99845.28
2022-12-18T23:39:32.977Z,99856.97
2022-12-18T23:42:00.233Z,99861.38
2022-12-18T23:44:27.420Z,99850.53
2022-12-18T23:46:54.783Z,99850.72
2022-12-18T23:49:21.604Z,99848.91
2022-12-18T23:51:48.748Z,99854.00
2022-12-18T23:54:16.140Z,99842.38
2022-12-18T23:56:43.011Z,99834.63
2022-12-18T23:59:09.834Z,99830.25
